sensor_id;sensor_type;location;lat;lon;timestamp;P1;durP1;ratioP1;P2;durP2;ratioP2
64609;SDS011;51019;46.090;6.350;2023-11-21T00:00:15;14.77;;;6.03;;
64609;SDS011;51019;46.090;6.350;2023-11-21T00:02:43;23.08;;;9.80;;
64609;SDS011;51019;46.090;6.350;2023-11-21T00:05:12;21.55;;;9.25;;
64609;SDS011;51019;46.090;6.350;2023-11-21T00:07:41;20.42;;;9.10;;
64609;SDS011;51019;46.090;6.350;2023-11-21T00:10:09;27.85;;;13.57;;
64609;SDS011;51019;46.090;6.350;2023-11-21T00:12:39;34.28;;;16.48;;
64609;SDS011;51019;46.090;6.350;2023-11-21T00:15:10;39.35;;;18.13;;
64609;SDS011;51019;46.090;6.350;2023-11-21T00:17:37;24.88;;;11.15;;
64609;SDS011;51019;46.090;6.350;2023-11-21T00:20:06;18.35;;;7.75;;
64609;SDS011;51019;46.090;6.350;2023-11-21T00:22:37;28.80;;;13.17;;
64609;SDS011;51019;46.090;6.350;2023-11-21T00:25:06;21.95;;;10.35;;
64609;SDS011;51019;46.090;6.350;2023-11-21T00:27:34;24.05;;;10.13;;
64609;SDS011;51019;46.090;6.350;2023-11-21T00:30:02;22.08;;;9.52;;
64609;SDS011;51019;46.090;6.350;2023-11-21T00:32:35;25.13;;;9.73;;
64609;SDS011;51019;46.090;6.350;2023-11-21T00:35:04;17.13;;;6.13;;
64609;SDS011;51019;46.090;6.350;2023-11-21T00:37:32;17.30;;;5.00;;
64609;SDS011;51019;46.090;6.350;2023-11-21T00:40:00;14.35;;;4.90;;
64609;SDS011;51019;46.090;6.350;2023-11-21T00:42:30;15.65;;;4.47;;
64609;SDS011;51019;46.090;6.350;2023-11-21T00:44:59;13.95;;;4.10;;
64609;SDS011;51019;46.090;6.350;2023-11-21T00:47:28;16.02;;;3.78;;
64609;SDS011;51019;46.090;6.350;2023-11-21T00:49:57;11.82;;;3.28;;
64609;SDS011;51019;46.090;6.350;2023-11-21T00:52:24;11.32;;;3.33;;
64609;SDS011;51019;46.090;6.350;2023-11-21T00:54:51;12.70;;;2.85;;
64609;SDS011;51019;46.090;6.350;2023-11-21T00:57:19;10.10;;;2.67;;
64609;SDS011;51019;46.090;6.350;2023-11-21T00:59:47;12.25;;;3.00;;
64609;SDS011;51019;46.090;6.350;2023-11-21T01:02:14;12.50;;;2.60;;
64609;SDS011;51019;46.090;6.350;2023-11-21T01:04:42;10.40;;;2.42;;
64609;SDS011;51019;46.090;6.350;2023-11-21T01:07:12;11.77;;;2.60;;
64609;SDS011;51019;46.090;6.350;2023-11-21T01:09:41;13.13;;;2.47;;
64609;SDS011;51019;46.090;6.350;2023-11-21T01:12:09;14.45;;;2.83;;
64609;SDS011;51019;46.090;6.350;2023-11-21T01:14:37;12.00;;;3.00;;
64609;SDS011;51019;46.090;6.350;2023-11-21T01:17:04;11.95;;;3.15;;
64609;SDS011;51019;46.090;6.350;2023-11-21T01:19:32;13.02;;;3.53;;
64609;SDS011;51019;46.090;6.350;2023-11-21T01:21:59;15.18;;;3.63;;
64609;SDS011;51019;46.090;6.350;2023-11-21T01:24:29;13.80;;;4.25;;
64609;SDS011;51019;46.090;6.350;2023-11-21T01:26:56;15.15;;;5.10;;
64609;SDS011;51019;46.090;6.350;2023-11-21T01:29:23;17.83;;;5.57;;
64609;SDS011;51019;46.090;6.350;2023-11-21T01:31:51;18.58;;;6.20;;
64609;SDS011;51019;46.090;6.350;2023-11-21T01:34:18;17.05;;;6.85;;
64609;SDS011;51019;46.090;6.350;2023-11-21T01:36:46;18.45;;;6.57;;
64609;SDS011;51019;46.090;6.350;2023-11-21T01:39:14;17.80;;;7.15;;
64609;SDS011;51019;46.090;6.350;2023-11-21T01:41:50;16.10;;;6.32;;
64609;SDS011;51019;46.090;6.350;2023-11-21T01:44:19;16.63;;;6.30;;
64609;SDS011;51019;46.090;6.350;2023-11-21T01:46:47;19.33;;;7.22;;
64609;SDS011;51019;46.090;6.350;2023-11-21T01:49:15;16.65;;;6.43;;
64609;SDS011;51019;46.090;6.350;2023-11-21T01:51:46;17.17;;;6.47;;
64609;SDS011;51019;46.090;6.350;2023-11-21T01:54:17;17.33;;;6.55;;
64609;SDS011;51019;46.090;6.350;2023-11-21T01:56:45;20.65;;;7.60;;
64609;SDS011;51019;46.090;6.350;2023-11-21T01:59:18;20.17;;;7.65;;
64609;SDS011;51019;46.090;6.350;2023-11-21T02:01:49;17.50;;;7.20;;
64609;SDS011;51019;46.090;6.350;2023-11-21T02:04:17;19.00;;;7.90;;
64609;SDS011;51019;46.090;6.350;2023-11-21T02:06:44;18.98;;;7.22;;
64609;SDS011;51019;46.090;6.350;2023-11-21T02:09:12;16.70;;;6.55;;
64609;SDS011;51019;46.090;6.350;2023-11-21T02:11:40;19.30;;;6.82;;
64609;SDS011;51019;46.090;6.350;2023-11-21T02:14:08;18.92;;;7.03;;
64609;SDS011;51019;46.090;6.350;2023-11-21T02:16:37;26.67;;;14.23;;
64609;SDS011;51019;46.090;6.350;2023-11-21T02:19:07;22.20;;;11.15;;
64609;SDS011;51019;46.090;6.350;2023-11-21T02:21:38;22.63;;;10.35;;
64609;SDS011;51019;46.090;6.350;2023-11-21T02:24:08;19.10;;;6.97;;
64609;SDS011;51019;46.090;6.350;2023-11-21T02:26:37;17.15;;;6.85;;
64609;SDS011;51019;46.090;6.350;2023-11-21T02:29:06;19.63;;;6.22;;
64609;SDS011;51019;46.090;6.350;2023-11-21T02:31:36;21.90;;;7.03;;
64609;SDS011;51019;46.090;6.350;2023-11-21T02:34:12;19.10;;;6.40;;
64609;SDS011;51019;46.090;6.350;2023-11-21T02:36:40;17.08;;;6.03;;
64609;SDS011;51019;46.090;6.350;2023-11-21T02:39:10;21.60;;;6.93;;
64609;SDS011;51019;46.090;6.350;2023-11-21T02:41:38;18.02;;;6.28;;
64609;SDS011;51019;46.090;6.350;2023-11-21T02:44:06;17.00;;;6.55;;
64609;SDS011;51019;46.090;6.350;2023-11-21T02:46:35;16.90;;;6.55;;
64609;SDS011;51019;46.090;6.350;2023-11-21T02:49:04;19.00;;;6.80;;
64609;SDS011;51019;46.090;6.350;2023-11-21T02:51:32;17.95;;;6.15;;
64609;SDS011;51019;46.090;6.350;2023-11-21T02:54:00;17.98;;;5.85;;
64609;SDS011;51019;46.090;6.350;2023-11-21T02:56:32;16.27;;;6.72;;
64609;SDS011;51019;46.090;6.350;2023-11-21T02:59:00;19.00;;;6.50;;
64609;SDS011;51019;46.090;6.350;2023-11-21T03:01:27;16.38;;;6.07;;
64609;SDS011;51019;46.090;6.350;2023-11-21T03:03:56;18.60;;;6.30;;
64609;SDS011;51019;46.090;6.350;2023-11-21T03:06:23;17.25;;;6.22;;
64609;SDS011;51019;46.090;6.350;2023-11-21T03:08:51;16.67;;;6.60;;
64609;SDS011;51019;46.090;6.350;2023-11-21T03:11:18;16.17;;;5.53;;
64609;SDS011;51019;46.090;6.350;2023-11-21T03:13:47;18.95;;;5.93;;
64609;SDS011;51019;46.090;6.350;2023-11-21T03:16:15;16.88;;;5.85;;
64609;SDS011;51019;46.090;6.350;2023-11-21T03:18:44;16.52;;;5.88;;
64609;SDS011;51019;46.090;6.350;2023-11-21T03:21:12;16.55;;;6.05;;
64609;SDS011;51019;46.090;6.350;2023-11-21T03:23:39;15.48;;;5.88;;
64609;SDS011;51019;46.090;6.350;2023-11-21T03:26:06;16.40;;;5.80;;
64609;SDS011;51019;46.090;6.350;2023-11-21T03:28:38;15.93;;;5.90;;
64609;SDS011;51019;46.090;6.350;2023-11-21T03:31:07;16.50;;;6.28;;
64609;SDS011;51019;46.090;6.350;2023-11-21T03:33:35;19.60;;;6.25;;
64609;SDS011;51019;46.090;6.350;2023-11-21T03:36:03;16.25;;;5.90;;
64609;SDS011;51019;46.090;6.350;2023-11-21T03:38:33;17.25;;;6.60;;
64609;SDS011;51019;46.090;6.350;2023-11-21T03:41:01;16.00;;;6.00;;
64609;SDS011;51019;46.090;6.350;2023-11-21T03:43:28;16.42;;;6.50;;
64609;SDS011;51019;46.090;6.350;2023-11-21T03:45:55;17.85;;;6.32;;
64609;SDS011;51019;46.090;6.350;2023-11-21T03:48:25;17.88;;;6.78;;
64609;SDS011;51019;46.090;6.350;2023-11-21T03:50:52;17.58;;;6.78;;
64609;SDS011;51019;46.090;6.350;2023-11-21T03:53:19;18.60;;;6.38;;
64609;SDS011;51019;46.090;6.350;2023-11-21T03:55:46;20.23;;;6.25;;
64609;SDS011;51019;46.090;6.350;2023-11-21T03:58:15;16.50;;;6.25;;
64609;SDS011;51019;46.090;6.350;2023-11-21T04:00:43;16.10;;;5.88;;
64609;SDS011;51019;46.090;6.350;2023-11-21T04:03:10;17.88;;;6.53;;
64609;SDS011;51019;46.090;6.350;2023-11-21T04:05:42;16.85;;;6.20;;
64609;SDS011;51019;46.090;6.350;2023-11-21T04:08:11;19.03;;;6.50;;
64609;SDS011;51019;46.090;6.350;2023-11-21T04:10:38;14.02;;;5.80;;
64609;SDS011;51019;46.090;6.350;2023-11-21T04:13:07;16.98;;;6.15;;
64609;SDS011;51019;46.090;6.350;2023-11-21T04:15:35;15.57;;;5.93;;
64609;SDS011;51019;46.090;6.350;2023-11-21T04:18:02;14.38;;;5.47;;
64609;SDS011;51019;46.090;6.350;2023-11-21T04:20:30;15.43;;;5.57;;
64609;SDS011;51019;46.090;6.350;2023-11-21T04:22:59;14.73;;;5.15;;
64609;SDS011;51019;46.090;6.350;2023-11-21T04:25:26;14.20;;;4.55;;
64609;SDS011;51019;46.090;6.350;2023-11-21T04:27:53;16.92;;;5.82;;
64609;SDS011;51019;46.090;6.350;2023-11-21T04:30:21;14.95;;;4.75;;
64609;SDS011;51019;46.090;6.350;2023-11-21T04:32:48;14.85;;;5.18;;
64609;SDS011;51019;46.090;6.350;2023-11-21T04:35:16;15.60;;;7.43;;
64609;SDS011;51019;46.090;6.350;2023-11-21T04:37:43;16.55;;;6.32;;
64609;SDS011;51019;46.090;6.350;2023-11-21T04:40:13;13.93;;;5.40;;
64609;SDS011;51019;46.090;6.350;2023-11-21T04:42:40;15.07;;;5.53;;
64609;SDS011;51019;46.090;6.350;2023-11-21T04:45:08;16.80;;;5.93;;
64609;SDS011;51019;46.090;6.350;2023-11-21T04:47:37;16.95;;;5.70;;
64609;SDS011;51019;46.090;6.350;2023-11-21T04:50:04;16.13;;;5.03;;
64609;SDS011;51019;46.090;6.350;2023-11-21T04:52:32;15.95;;;4.95;;
64609;SDS011;51019;46.090;6.350;2023-11-21T04:54:59;16.02;;;5.40;;
64609;SDS011;51019;46.090;6.350;2023-11-21T04:57:29;15.93;;;5.60;;
64609;SDS011;51019;46.090;6.350;2023-11-21T04:59:56;18.02;;;5.70;;
64609;SDS011;51019;46.090;6.350;2023-11-21T05:02:23;18.20;;;6.57;;
64609;SDS011;51019;46.090;6.350;2023-11-21T05:04:49;16.83;;;8.05;;
64609;SDS011;51019;46.090;6.350;2023-11-21T05:07:16;18.35;;;8.13;;
64609;SDS011;51019;46.090;6.350;2023-11-21T05:09:43;17.33;;;8.00;;
64609;SDS011;51019;46.090;6.350;2023-11-21T05:12:11;15.02;;;5.78;;
64609;SDS011;51019;46.090;6.350;2023-11-21T05:14:41;16.92;;;5.25;;
64609;SDS011;51019;46.090;6.350;2023-11-21T05:17:08;16.52;;;5.40;;
64609;SDS011;51019;46.090;6.350;2023-11-21T05:19:35;17.77;;;5.15;;
64609;SDS011;51019;46.090;6.350;2023-11-21T05:22:03;15.15;;;5.97;;
64609;SDS011;51019;46.090;6.350;2023-11-21T05:24:30;15.77;;;5.50;;
64609;SDS011;51019;46.090;6.350;2023-11-21T05:26:57;19.45;;;6.45;;
64609;SDS011;51019;46.090;6.350;2023-11-21T05:29:24;15.60;;;5.93;;
64609;SDS011;51019;46.090;6.350;2023-11-21T05:31:54;16.23;;;6.65;;
64609;SDS011;51019;46.090;6.350;2023-11-21T05:34:21;16.00;;;6.82;;
64609;SDS011;51019;46.090;6.350;2023-11-21T05:36:49;14.45;;;5.80;;
64609;SDS011;51019;46.090;6.350;2023-11-21T05:39:16;21.20;;;6.53;;
64609;SDS011;51019;46.090;6.350;2023-11-21T05:41:44;15.27;;;5.35;;
64609;SDS011;51019;46.090;6.350;2023-11-21T05:44:11;14.45;;;4.97;;
64609;SDS011;51019;46.090;6.350;2023-11-21T05:46:39;20.77;;;6.32;;
64609;SDS011;51019;46.090;6.350;2023-11-21T05:49:10;15.73;;;6.55;;
64609;SDS011;51019;46.090;6.350;2023-11-21T05:51:37;20.55;;;8.35;;
64609;SDS011;51019;46.090;6.350;2023-11-21T05:54:04;19.67;;;8.18;;
64609;SDS011;51019;46.090;6.350;2023-11-21T05:56:34;16.77;;;7.22;;
64609;SDS011;51019;46.090;6.350;2023-11-21T05:59:01;17.23;;;7.45;;
64609;SDS011;51019;46.090;6.350;2023-11-21T06:01:28;17.95;;;7.07;;
64609;SDS011;51019;46.090;6.350;2023-11-21T06:03:55;18.80;;;7.63;;
64609;SDS011;51019;46.090;6.350;2023-11-21T06:06:24;16.73;;;6.72;;
64609;SDS011;51019;46.090;6.350;2023-11-21T06:08:51;20.95;;;7.47;;
64609;SDS011;51019;46.090;6.350;2023-11-21T06:11:18;18.45;;;6.60;;
64609;SDS011;51019;46.090;6.350;2023-11-21T06:13:45;18.90;;;7.45;;
64609;SDS011;51019;46.090;6.350;2023-11-21T06:16:13;19.10;;;6.97;;
64609;SDS011;51019;46.090;6.350;2023-11-21T06:18:44;18.55;;;6.95;;
64609;SDS011;51019;46.090;6.350;2023-11-21T06:21:12;14.90;;;6.38;;
64609;SDS011;51019;46.090;6.350;2023-11-21T06:23:46;15.05;;;6.25;;
64609;SDS011;51019;46.090;6.350;2023-11-21T06:26:13;16.10;;;6.57;;
64609;SDS011;51019;46.090;6.350;2023-11-21T06:28:41;23.13;;;8.45;;
64609;SDS011;51019;46.090;6.350;2023-11-21T06:31:11;22.33;;;8.95;;
64609;SDS011;51019;46.090;6.350;2023-11-21T06:33:39;20.65;;;8.57;;
64609;SDS011;51019;46.090;6.350;2023-11-21T06:36:07;24.08;;;8.27;;
64609;SDS011;51019;46.090;6.350;2023-11-21T06:38:39;16.45;;;7.60;;
64609;SDS011;51019;46.090;6.350;2023-11-21T06:41:08;20.10;;;7.80;;
64609;SDS011;51019;46.090;6.350;2023-11-21T06:43:35;22.88;;;7.95;;
64609;SDS011;51019;46.090;6.350;2023-11-21T06:46:03;19.58;;;7.78;;
64609;SDS011;51019;46.090;6.350;2023-11-21T06:48:31;19.67;;;7.00;;
64609;SDS011;51019;46.090;6.350;2023-11-21T06:50:58;19.58;;;7.60;;
64609;SDS011;51019;46.090;6.350;2023-11-21T06:53:26;18.08;;;7.05;;
64609;SDS011;51019;46.090;6.350;2023-11-21T06:55:55;18.15;;;6.68;;
64609;SDS011;51019;46.090;6.350;2023-11-21T06:58:24;22.33;;;7.70;;
64609;SDS011;51019;46.090;6.350;2023-11-21T07:00:51;16.63;;;7.68;;
64609;SDS011;51019;46.090;6.350;2023-11-21T07:03:18;19.55;;;7.53;;
64609;SDS011;51019;46.090;6.350;2023-11-21T07:05:46;16.65;;;7.75;;
64609;SDS011;51019;46.090;6.350;2023-11-21T07:08:13;20.98;;;7.60;;
64609;SDS011;51019;46.090;6.350;2023-11-21T07:10:41;20.23;;;8.05;;
64609;SDS011;51019;46.090;6.350;2023-11-21T07:13:10;21.05;;;7.80;;
64609;SDS011;51019;46.090;6.350;2023-11-21T07:15:39;16.88;;;7.63;;
64609;SDS011;51019;46.090;6.350;2023-11-21T07:18:06;17.67;;;7.68;;
64609;SDS011;51019;46.090;6.350;2023-11-21T07:20:34;21.95;;;8.25;;
64609;SDS011;51019;46.090;6.350;2023-11-21T07:23:01;23.10;;;7.75;;
64609;SDS011;51019;46.090;6.350;2023-11-21T07:25:31;18.75;;;6.57;;
64609;SDS011;51019;46.090;6.350;2023-11-21T07:27:59;19.90;;;7.30;;
64609;SDS011;51019;46.090;6.350;2023-11-21T07:30:27;21.95;;;7.32;;
64609;SDS011;51019;46.090;6.350;2023-11-21T07:32:56;17.83;;;6.70;;
64609;SDS011;51019;46.090;6.350;2023-11-21T07:35:25;18.88;;;7.88;;
64609;SDS011;51019;46.090;6.350;2023-11-21T07:37:53;19.95;;;7.55;;
64609;SDS011;51019;46.090;6.350;2023-11-21T07:40:22;22.80;;;9.20;;
64609;SDS011;51019;46.090;6.350;2023-11-21T07:42:51;21.70;;;9.82;;
64609;SDS011;51019;46.090;6.350;2023-11-21T07:45:19;22.83;;;9.20;;
64609;SDS011;51019;46.090;6.350;2023-11-21T07:47:47;20.95;;;9.60;;
64609;SDS011;51019;46.090;6.350;2023-11-21T07:50:17;21.95;;;8.63;;
64609;SDS011;51019;46.090;6.350;2023-11-21T07:52:45;17.02;;;7.88;;
64609;SDS011;51019;46.090;6.350;2023-11-21T07:55:14;21.63;;;8.23;;
64609;SDS011;51019;46.090;6.350;2023-11-21T07:57:43;22.10;;;8.52;;
64609;SDS011;51019;46.090;6.350;2023-11-21T08:00:12;20.08;;;7.93;;
64609;SDS011;51019;46.090;6.350;2023-11-21T08:02:40;18.77;;;8.43;;
64609;SDS011;51019;46.090;6.350;2023-11-21T08:05:11;17.05;;;8.05;;
64609;SDS011;51019;46.090;6.350;2023-11-21T08:07:42;19.75;;;8.57;;
64609;SDS011;51019;46.090;6.350;2023-11-21T08:10:10;21.10;;;8.77;;
64609;SDS011;51019;46.090;6.350;2023-11-21T08:12:37;18.83;;;7.88;;
64609;SDS011;51019;46.090;6.350;2023-11-21T08:15:06;19.65;;;8.30;;
64609;SDS011;51019;46.090;6.350;2023-11-21T08:17:35;22.00;;;8.73;;
64609;SDS011;51019;46.090;6.350;2023-11-21T08:20:04;20.63;;;8.02;;
64609;SDS011;51019;46.090;6.350;2023-11-21T08:22:33;20.75;;;8.15;;
64609;SDS011;51019;46.090;6.350;2023-11-21T08:25:03;20.33;;;7.75;;
64609;SDS011;51019;46.090;6.350;2023-11-21T08:27:31;18.92;;;7.05;;
64609;SDS011;51019;46.090;6.350;2023-11-21T08:30:00;20.65;;;8.10;;
64609;SDS011;51019;46.090;6.350;2023-11-21T08:32:29;19.63;;;7.95;;
64609;SDS011;51019;46.090;6.350;2023-11-21T08:34:58;19.95;;;7.95;;
64609;SDS011;51019;46.090;6.350;2023-11-21T08:37:26;19.95;;;7.95;;
64609;SDS011;51019;46.090;6.350;2023-11-21T08:39:57;19.85;;;7.93;;
64609;SDS011;51019;46.090;6.350;2023-11-21T08:42:27;19.80;;;8.30;;
64609;SDS011;51019;46.090;6.350;2023-11-21T08:44:55;19.38;;;7.25;;
64609;SDS011;51019;46.090;6.350;2023-11-21T08:47:23;22.45;;;7.45;;
64609;SDS011;51019;46.090;6.350;2023-11-21T08:49:51;17.83;;;7.45;;
64609;SDS011;51019;46.090;6.350;2023-11-21T08:52:19;17.70;;;6.68;;
64609;SDS011;51019;46.090;6.350;2023-11-21T08:54:48;19.55;;;6.80;;
64609;SDS011;51019;46.090;6.350;2023-11-21T08:57:21;18.40;;;6.97;;
64609;SDS011;51019;46.090;6.350;2023-11-21T08:59:54;18.52;;;6.78;;
64609;SDS011;51019;46.090;6.350;2023-11-21T09:02:21;16.73;;;6.70;;
64609;SDS011;51019;46.090;6.350;2023-11-21T09:04:49;16.08;;;6.28;;
64609;SDS011;51019;46.090;6.350;2023-11-21T09:07:17;18.50;;;5.70;;
64609;SDS011;51019;46.090;6.350;2023-11-21T09:09:45;15.30;;;6.38;;
64609;SDS011;51019;46.090;6.350;2023-11-21T09:12:14;16.67;;;5.60;;
64609;SDS011;51019;46.090;6.350;2023-11-21T09:14:44;18.10;;;5.97;;
64609;SDS011;51019;46.090;6.350;2023-11-21T09:17:13;17.98;;;6.28;;
64609;SDS011;51019;46.090;6.350;2023-11-21T09:19:40;18.75;;;6.82;;
64609;SDS011;51019;46.090;6.350;2023-11-21T09:22:08;18.73;;;7.10;;
64609;SDS011;51019;46.090;6.350;2023-11-21T09:24:35;23.77;;;7.30;;
64609;SDS011;51019;46.090;6.350;2023-11-21T09:27:03;18.40;;;6.90;;
64609;SDS011;51019;46.090;6.350;2023-11-21T09:29:30;17.98;;;6.30;;
64609;SDS011;51019;46.090;6.350;2023-11-21T09:31:58;15.10;;;5.25;;
64609;SDS011;51019;46.090;6.350;2023-11-21T09:34:28;15.25;;;5.18;;
64609;SDS011;51019;46.090;6.350;2023-11-21T09:36:55;19.35;;;5.68;;
64609;SDS011;51019;46.090;6.350;2023-11-21T09:39:23;15.85;;;5.70;;
64609;SDS011;51019;46.090;6.350;2023-11-21T09:41:51;17.23;;;5.78;;
64609;SDS011;51019;46.090;6.350;2023-11-21T09:44:26;15.32;;;4.70;;
64609;SDS011;51019;46.090;6.350;2023-11-21T09:47:02;17.85;;;4.18;;
64609;SDS011;51019;46.090;6.350;2023-11-21T09:49:35;14.57;;;4.95;;
64609;SDS011;51019;46.090;6.350;2023-11-21T09:52:05;16.17;;;4.57;;
64609;SDS011;51019;46.090;6.350;2023-11-21T09:54:36;14.70;;;4.60;;
64609;SDS011;51019;46.090;6.350;2023-11-21T09:57:05;15.65;;;5.03;;
64609;SDS011;51019;46.090;6.350;2023-11-21T09:59:34;14.02;;;4.50;;
64609;SDS011;51019;46.090;6.350;2023-11-21T10:02:05;12.95;;;4.70;;
64609;SDS011;51019;46.090;6.350;2023-11-21T10:04:41;15.85;;;4.57;;
64609;SDS011;51019;46.090;6.350;2023-11-21T10:07:10;19.95;;;6.18;;
64609;SDS011;51019;46.090;6.350;2023-11-21T10:09:40;14.73;;;4.90;;
64609;SDS011;51019;46.090;6.350;2023-11-21T10:12:09;14.80;;;4.45;;
64609;SDS011;51019;46.090;6.350;2023-11-21T10:14:42;14.45;;;4.10;;
64609;SDS011;51019;46.090;6.350;2023-11-21T10:17:17;14.80;;;4.30;;
64609;SDS011;51019;46.090;6.350;2023-11-21T10:19:47;15.25;;;3.60;;
64609;SDS011;51019;46.090;6.350;2023-11-21T10:22:14;15.32;;;4.03;;
64609;SDS011;51019;46.090;6.350;2023-11-21T10:24:42;15.85;;;4.30;;
64609;SDS011;51019;46.090;6.350;2023-11-21T10:27:12;15.82;;;4.50;;
64609;SDS011;51019;46.090;6.350;2023-11-21T10:29:42;14.55;;;4.43;;
64609;SDS011;51019;46.090;6.350;2023-11-21T10:32:09;18.48;;;4.40;;
64609;SDS011;51019;46.090;6.350;2023-11-21T10:34:40;13.95;;;4.80;;
64609;SDS011;51019;46.090;6.350;2023-11-21T10:37:15;13.75;;;4.05;;
64609;SDS011;51019;46.090;6.350;2023-11-21T10:39:43;13.20;;;3.95;;
64609;SDS011;51019;46.090;6.350;2023-11-21T10:42:11;12.73;;;4.10;;
64609;SDS011;51019;46.090;6.350;2023-11-21T10:44:41;13.00;;;3.35;;
64609;SDS011;51019;46.090;6.350;2023-11-21T10:47:09;14.50;;;3.45;;
64609;SDS011;51019;46.090;6.350;2023-11-21T10:49:38;13.10;;;3.60;;
64609;SDS011;51019;46.090;6.350;2023-11-21T10:52:07;11.05;;;3.35;;
64609;SDS011;51019;46.090;6.350;2023-11-21T10:54:44;12.30;;;3.60;;
64609;SDS011;51019;46.090;6.350;2023-11-21T10:57:16;12.20;;;2.65;;
64609;SDS011;51019;46.090;6.350;2023-11-21T10:59:46;17.27;;;3.80;;
64609;SDS011;51019;46.090;6.350;2023-11-21T11:02:18;13.45;;;3.38;;
64609;SDS011;51019;46.090;6.350;2023-11-21T11:04:53;14.57;;;3.05;;
64609;SDS011;51019;46.090;6.350;2023-11-21T11:07:21;11.05;;;3.00;;
64609;SDS011;51019;46.090;6.350;2023-11-21T11:09:57;13.65;;;3.17;;
64609;SDS011;51019;46.090;6.350;2023-11-21T11:12:26;13.45;;;3.88;;
64609;SDS011;51019;46.090;6.350;2023-11-21T11:14:54;10.68;;;3.03;;
64609;SDS011;51019;46.090;6.350;2023-11-21T11:17:24;14.13;;;3.20;;
64609;SDS011;51019;46.090;6.350;2023-11-21T11:19:53;11.70;;;2.65;;
64609;SDS011;51019;46.090;6.350;2023-11-21T11:22:25;10.50;;;2.25;;
64609;SDS011;51019;46.090;6.350;2023-11-21T11:25:16;11.57;;;2.50;;
64609;SDS011;51019;46.090;6.350;2023-11-21T11:27:59;9.10;;;2.30;;
64609;SDS011;51019;46.090;6.350;2023-11-21T11:30:38;11.73;;;2.60;;
64609;SDS011;51019;46.090;6.350;2023-11-21T11:33:21;12.43;;;2.70;;
64609;SDS011;51019;46.090;6.350;2023-11-21T11:36:00;10.25;;;2.50;;
64609;SDS011;51019;46.090;6.350;2023-11-21T11:41:01;10.68;;;2.40;;
64609;SDS011;51019;46.090;6.350;2023-11-21T11:43:29;9.23;;;2.45;;
64609;SDS011;51019;46.090;6.350;2023-11-21T11:45:58;9.35;;;2.35;;
64609;SDS011;51019;46.090;6.350;2023-11-21T11:48:28;9.93;;;2.60;;
64609;SDS011;51019;46.090;6.350;2023-11-21T11:51:03;9.77;;;2.17;;
64609;SDS011;51019;46.090;6.350;2023-11-21T11:53:35;11.00;;;2.88;;
64609;SDS011;51019;46.090;6.350;2023-11-21T11:56:24;8.90;;;1.83;;
64609;SDS011;51019;46.090;6.350;2023-11-21T11:58:56;9.20;;;2.10;;
64609;SDS011;51019;46.090;6.350;2023-11-21T12:01:26;9.75;;;2.10;;
64609;SDS011;51019;46.090;6.350;2023-11-21T12:07:00;9.98;;;2.67;;
64609;SDS011;51019;46.090;6.350;2023-11-21T12:09:30;11.18;;;2.10;;
64609;SDS011;51019;46.090;6.350;2023-11-21T12:12:01;8.70;;;2.00;;
64609;SDS011;51019;46.090;6.350;2023-11-21T12:14:31;8.75;;;1.80;;
64609;SDS011;51019;46.090;6.350;2023-11-21T12:16:58;9.25;;;2.20;;
64609;SDS011;51019;46.090;6.350;2023-11-21T12:19:27;6.90;;;1.70;;
64609;SDS011;51019;46.090;6.350;2023-11-21T12:22:00;6.97;;;2.00;;
64609;SDS011;51019;46.090;6.350;2023-11-21T12:24:27;7.80;;;1.83;;
64609;SDS011;51019;46.090;6.350;2023-11-21T12:26:54;4.32;;;1.40;;
64609;SDS011;51019;46.090;6.350;2023-11-21T12:29:23;6.60;;;1.73;;
64609;SDS011;51019;46.090;6.350;2023-11-21T12:31:50;9.40;;;1.90;;
64609;SDS011;51019;46.090;6.350;2023-11-21T12:34:17;7.75;;;1.77;;
64609;SDS011;51019;46.090;6.350;2023-11-21T12:36:49;9.68;;;1.80;;
64609;SDS011;51019;46.090;6.350;2023-11-21T12:39:19;9.60;;;1.95;;
64609;SDS011;51019;46.090;6.350;2023-11-21T12:41:48;10.30;;;2.10;;
64609;SDS011;51019;46.090;6.350;2023-11-21T12:44:16;7.43;;;1.75;;
64609;SDS011;51019;46.090;6.350;2023-11-21T12:46:45;9.60;;;2.00;;
64609;SDS011;51019;46.090;6.350;2023-11-21T12:49:12;8.75;;;2.13;;
64609;SDS011;51019;46.090;6.350;2023-11-21T12:51:42;8.90;;;2.00;;
64609;SDS011;51019;46.090;6.350;2023-11-21T12:54:12;12.30;;;2.03;;
64609;SDS011;51019;46.090;6.350;2023-11-21T12:56:41;6.70;;;1.70;;
64609;SDS011;51019;46.090;6.350;2023-11-21T12:59:12;6.30;;;1.85;;
64609;SDS011;51019;46.090;6.350;2023-11-21T13:01:41;11.70;;;2.10;;
64609;SDS011;51019;46.090;6.350;2023-11-21T13:04:10;9.68;;;2.25;;
64609;SDS011;51019;46.090;6.350;2023-11-21T13:06:37;9.90;;;2.10;;
64609;SDS011;51019;46.090;6.350;2023-11-21T13:09:06;9.32;;;2.40;;
64609;SDS011;51019;46.090;6.350;2023-11-21T13:11:37;7.20;;;2.05;;
64609;SDS011;51019;46.090;6.350;2023-11-21T13:14:06;10.65;;;2.10;;
64609;SDS011;51019;46.090;6.350;2023-11-21T13:16:37;9.90;;;2.33;;
64609;SDS011;51019;46.090;6.350;2023-11-21T13:19:12;12.32;;;2.28;;
64609;SDS011;51019;46.090;6.350;2023-11-21T13:21:39;8.43;;;2.00;;
64609;SDS011;51019;46.090;6.350;2023-11-21T13:24:07;7.97;;;1.70;;
64609;SDS011;51019;46.090;6.350;2023-11-21T13:26:35;12.88;;;2.35;;
64609;SDS011;51019;46.090;6.350;2023-11-21T13:29:02;7.50;;;2.08;;
64609;SDS011;51019;46.090;6.350;2023-11-21T13:31:30;9.43;;;2.50;;
64609;SDS011;51019;46.090;6.350;2023-11-21T13:33:58;9.05;;;2.20;;
64609;SDS011;51019;46.090;6.350;2023-11-21T13:36:32;11.47;;;2.13;;
64609;SDS011;51019;46.090;6.350;2023-11-21T13:39:01;10.70;;;2.20;;
64609;SDS011;51019;46.090;6.350;2023-11-21T13:41:32;8.70;;;2.10;;
64609;SDS011;51019;46.090;6.350;2023-11-21T13:44:03;7.05;;;2.00;;
64609;SDS011;51019;46.090;6.350;2023-11-21T13:46:40;9.52;;;2.08;;
64609;SDS011;51019;46.090;6.350;2023-11-21T13:49:09;7.97;;;1.90;;
64609;SDS011;51019;46.090;6.350;2023-11-21T13:51:41;8.52;;;1.80;;
64609;SDS011;51019;46.090;6.350;2023-11-21T13:54:11;9.68;;;1.83;;
64609;SDS011;51019;46.090;6.350;2023-11-21T13:56:38;7.53;;;1.80;;
64609;SDS011;51019;46.090;6.350;2023-11-21T13:59:09;8.93;;;2.22;;
64609;SDS011;51019;46.090;6.350;2023-11-21T14:01:46;8.35;;;1.80;;
64609;SDS011;51019;46.090;6.350;2023-11-21T14:04:28;3.80;;;1.40;;
64609;SDS011;51019;46.090;6.350;2023-11-21T14:07:14;7.72;;;1.85;;
64609;SDS011;51019;46.090;6.350;2023-11-21T14:09:51;3.47;;;1.40;;
64609;SDS011;51019;46.090;6.350;2023-11-21T14:12:19;12.20;;;2.22;;
64609;SDS011;51019;46.090;6.350;2023-11-21T14:14:46;6.30;;;1.58;;
64609;SDS011;51019;46.090;6.350;2023-11-21T14:17:14;5.78;;;1.40;;
64609;SDS011;51019;46.090;6.350;2023-11-21T14:19:41;10.65;;;1.80;;
64609;SDS011;51019;46.090;6.350;2023-11-21T14:22:09;5.97;;;1.55;;
64609;SDS011;51019;46.090;6.350;2023-11-21T14:24:39;6.13;;;1.48;;
64609;SDS011;51019;46.090;6.350;2023-11-21T14:27:12;4.55;;;1.17;;
64609;SDS011;51019;46.090;6.350;2023-11-21T14:29:40;6.05;;;1.10;;
64609;SDS011;51019;46.090;6.350;2023-11-21T14:32:10;5.63;;;1.40;;
64609;SDS011;51019;46.090;6.350;2023-11-21T14:34:38;2.30;;;1.13;;
64609;SDS011;51019;46.090;6.350;2023-11-21T14:37:08;3.40;;;1.30;;
64609;SDS011;51019;46.090;6.350;2023-11-21T14:39:41;7.13;;;1.60;;
64609;SDS011;51019;46.090;6.350;2023-11-21T14:42:11;1.73;;;1.07;;
64609;SDS011;51019;46.090;6.350;2023-11-21T14:44:40;4.43;;;1.08;;
64609;SDS011;51019;46.090;6.350;2023-11-21T14:47:08;2.05;;;0.90;;
64609;SDS011;51019;46.090;6.350;2023-11-21T14:49:43;2.13;;;0.93;;
64609;SDS011;51019;46.090;6.350;2023-11-21T14:52:18;4.43;;;1.00;;